OIAH  Gachsaran Airport

Add Bookmark

Iran

Status
Operational
Latitude Longitude
30° 20' 15" N 50° 49' 40" E
30.337601 50.827999
Local (DST + 5) UTC (GMT + 4)
Oct 23, 2014 03:53 Oct 23, 2014 12:23
Sunrise-Sunset Local UTC
Begin Civil Twilight 05:48 02:18
Sunrise 06:13 02:43
Sunset 05:28 13:58
End Civil Twilight 05:53 14:23

Current Weather

METAR Observed VFR
OIAH 231200Z 28008KT CAVOK 27/06 Q1017 Thu, Oct 23, 2014 @ 12:00 UTC
(23 Minutes ago)
Visual Flight Rules
Wind Visibility Clouds Conditions
280° at 8 knots (15 kph) 10 km or more
  • Clear skies
  • No significant weather
Temperatures Readings Precipitation
Current Temp 27°C (81°F)
Dewpoint 6°C (43°F)
Humidity 26%
Altimeter 30.03"Hg
Sea Level Pressure 1017mb
Field Elevation 2421.26'
None Recorded

Additional weather within a 92.6km radius of OIAH

Map ICAO Location
OISY 79.6km E (059°)

24 Hour Weather History

Loading
-

24 Hour Weather Graphs

Loading
-

CheckWX.com is intended as a tool to help pilots better visualize weather data. It is not intended as a substitute for an official weather briefing obtained from a Flight Service Station. CheckWX.com does not meet the FAA requirements for an official pre-flight weather briefing. Therefore, it's important that pilots still call and obtain an official FSS pre-flight weather briefing.